CLS weather

Chehalis Centralia Airport
Chehalis, Washington, United States

Public forecast

Using degrees Fahrenheit for public forecast. Weather courtesy of forecast.io.

Current aviation weather report (METAR) for Chehalis Centralia Airport

Retrieved 2019/10/14 18:35 UTC (0 seconds ago):

KCLS 141835Z AUTO 00000KT 9SM CLR 12/08 A3011 RMK AO2

Closest aviation forecast (TAF) to Chehalis Centralia Airport

Closest forecast is Olympia Regional Airport, 17.9 nm (33.1 km) N. Retrieved 2019/10/14 18:22 UTC (0 seconds ago):

TAF KOLM 141720Z 1418/1518 00000KT P6SM SCT020 BKN200 FM142200 VRB04KT P6SM SCT200 FM150900 00000KT 3SM BR BKN005 BKN200 TEMPO 1512/1516 1SM BR OVC002 FM151700 21007KT P6SM BKN200